Barra do Corda, Brazil
Current Conditions -  °F | °C
As of 12:00 PM on Monday 24 Nov 2014 (Local Time) from SBIZ Reporting Station
Scattered Clouds Scattered Clouds  
Wind Chill: 91°   Ceiling: Unl
Heat Index: 98°   Visibility: 6mi
Dew Point: 72°   Wind: 9mph
Humidity: 52%   Direction: 90°E
Pressure: 29.88"   Gusts: NA
Location:  5.51°S, 45.26°W
Report Text: SBIZ 241500Z 09008KT 9999 SCT023 33/22 Q1012
Loading
Personal Weather Stations






























Interactive Weather Map New forecast layout! Learn more

10-Day Weather Forecast

Advertisements
Track Severe Weather on mobile